sensor_id;sensor_type;location;lat;lon;timestamp;pressure;altitude;pressure_sealevel;temperature;humidity
49473;BME280;67434;50.956;6.918;2023-02-27T00:00:21;102205.28;;;-0.50;66.82
49473;BME280;67434;50.956;6.918;2023-02-27T00:02:49;102208.47;;;-0.46;66.91
49473;BME280;67434;50.956;6.918;2023-02-27T00:05:15;102210.44;;;-0.48;66.73
49473;BME280;67434;50.956;6.918;2023-02-27T00:07:41;102213.41;;;-0.51;67.31
49473;BME280;67434;50.956;6.918;2023-02-27T00:10:07;102217.44;;;-0.47;66.87
49473;BME280;67434;50.956;6.918;2023-02-27T00:12:33;102214.09;;;-0.49;67.38
49473;BME280;67434;50.956;6.918;2023-02-27T00:15:07;102210.53;;;-0.40;67.19
49473;BME280;67434;50.956;6.918;2023-02-27T00:17:33;102217.03;;;-0.52;67.61
49473;BME280;67434;50.956;6.918;2023-02-27T00:19:58;102211.97;;;-0.46;67.10
49473;BME280;67434;50.956;6.918;2023-02-27T00:22:24;102206.25;;;-0.51;67.24
49473;BME280;67434;50.956;6.918;2023-02-27T00:38:16;102215.97;;;-0.59;68.17
49473;BME280;67434;50.956;6.918;2023-02-27T00:40:41;102222.50;;;-0.54;67.84
49473;BME280;67434;50.956;6.918;2023-02-27T00:43:06;102215.81;;;-0.58;68.60
49473;BME280;67434;50.956;6.918;2023-02-27T00:45:32;102222.00;;;-0.67;68.21
49473;BME280;67434;50.956;6.918;2023-02-27T00:47:57;102215.47;;;-0.73;68.76
49473;BME280;67434;50.956;6.918;2023-02-27T00:50:22;102226.25;;;-0.74;68.99
49473;BME280;67434;50.956;6.918;2023-02-27T00:52:48;102225.81;;;-0.79;69.15
49473;BME280;67434;50.956;6.918;2023-02-27T00:55:13;102220.06;;;-0.75;68.92
49473;BME280;67434;50.956;6.918;2023-02-27T00:57:38;102219.22;;;-0.66;68.98
49473;BME280;67434;50.956;6.918;2023-02-27T01:00:07;102222.41;;;-0.62;68.16
49473;BME280;67434;50.956;6.918;2023-02-27T01:02:33;102220.59;;;-0.61;68.63
49473;BME280;67434;50.956;6.918;2023-02-27T01:04:58;102214.72;;;-0.65;68.35
49473;BME280;67434;50.956;6.918;2023-02-27T01:07:24;102218.69;;;-0.79;69.26
49473;BME280;67434;50.956;6.918;2023-02-27T01:09:49;102214.50;;;-0.81;69.43
49473;BME280;67434;50.956;6.918;2023-02-27T01:12:15;102222.06;;;-0.86;69.28
49473;BME280;67434;50.956;6.918;2023-02-27T01:34:48;102212.59;;;-1.55;72.62
49473;BME280;67434;50.956;6.918;2023-02-27T01:37:13;102210.34;;;-1.50;72.03
49473;BME280;67434;50.956;6.918;2023-02-27T01:39:38;102207.44;;;-1.47;72.70
49473;BME280;67434;50.956;6.918;2023-02-27T01:42:15;102209.25;;;-1.57;72.76
49473;BME280;67434;50.956;6.918;2023-02-27T01:47:26;102207.56;;;-1.39;72.28
49473;BME280;67434;50.956;6.918;2023-02-27T01:49:52;102201.16;;;-1.46;72.57
49473;BME280;67434;50.956;6.918;2023-02-27T01:52:18;102195.69;;;-1.35;72.04
49473;BME280;67434;50.956;6.918;2023-02-27T01:54:43;102205.59;;;-1.27;72.48
49473;BME280;67434;50.956;6.918;2023-02-27T01:57:10;102202.81;;;-1.35;72.05
49473;BME280;67434;50.956;6.918;2023-02-27T01:59:38;102211.75;;;-1.36;72.63
49473;BME280;67434;50.956;6.918;2023-02-27T02:02:12;102200.41;;;-1.29;72.50
49473;BME280;67434;50.956;6.918;2023-02-27T02:18:20;102205.91;;;-1.49;73.62
49473;BME280;67434;50.956;6.918;2023-02-27T02:32:12;102214.16;;;-1.81;74.39
49473;BME280;67434;50.956;6.918;2023-02-27T02:43:24;102215.13;;;-1.92;76.11
49473;BME280;67434;50.956;6.918;2023-02-27T02:46:01;102217.66;;;-1.81;74.73
49473;BME280;67434;50.956;6.918;2023-02-27T02:48:38;102217.78;;;-1.73;74.31
49473;BME280;67434;50.956;6.918;2023-02-27T03:14:58;102222.78;;;-2.18;76.77
49473;BME280;67434;50.956;6.918;2023-02-27T03:17:48;102217.78;;;-2.11;76.72
49473;BME280;67434;50.956;6.918;2023-02-27T03:20:21;102220.28;;;-2.19;76.20
49473;BME280;67434;50.956;6.918;2023-02-27T03:22:53;102228.66;;;-2.14;76.59
49473;BME280;67434;50.956;6.918;2023-02-27T03:25:20;102232.13;;;-2.14;76.21
49473;BME280;67434;50.956;6.918;2023-02-27T03:27:51;102234.50;;;-2.11;76.55
49473;BME280;67434;50.956;6.918;2023-02-27T03:30:36;102228.88;;;-2.27;76.68
49473;BME280;67434;50.956;6.918;2023-02-27T03:33:26;102240.56;;;-2.39;77.57
49473;BME280;67434;50.956;6.918;2023-02-27T03:36:16;102238.03;;;-2.50;78.33
49473;BME280;67434;50.956;6.918;2023-02-27T03:38:55;102242.91;;;-2.56;78.03
49473;BME280;67434;50.956;6.918;2023-02-27T03:44:43;102236.53;;;-2.43;77.94
49473;BME280;67434;50.956;6.918;2023-02-27T03:47:15;102242.50;;;-2.51;78.43
49473;BME280;67434;50.956;6.918;2023-02-27T03:49:40;102245.56;;;-2.56;78.25
49473;BME280;67434;50.956;6.918;2023-02-27T03:52:05;102241.59;;;-2.61;78.69
49473;BME280;67434;50.956;6.918;2023-02-27T03:54:35;102242.38;;;-2.49;77.96
49473;BME280;67434;50.956;6.918;2023-02-27T03:57:05;102235.16;;;-2.28;77.58
49473;BME280;67434;50.956;6.918;2023-02-27T03:59:32;102242.78;;;-2.44;78.28
49473;BME280;67434;50.956;6.918;2023-02-27T04:01:59;102241.66;;;-2.52;78.38
49473;BME280;67434;50.956;6.918;2023-02-27T04:04:26;102249.88;;;-2.55;78.24
49473;BME280;67434;50.956;6.918;2023-02-27T04:06:58;102251.41;;;-2.52;78.51
49473;BME280;67434;50.956;6.918;2023-02-27T04:13:03;102259.66;;;-2.45;78.50
49473;BME280;67434;50.956;6.918;2023-02-27T04:21:26;102270.28;;;-2.26;77.58
49473;BME280;67434;50.956;6.918;2023-02-27T04:26:41;102274.59;;;-2.25;77.62
49473;BME280;67434;50.956;6.918;2023-02-27T04:29:34;102265.94;;;-2.37;78.24
49473;BME280;67434;50.956;6.918;2023-02-27T04:32:14;102270.84;;;-2.32;78.03
49473;BME280;67434;50.956;6.918;2023-02-27T04:34:46;102266.78;;;-2.36;78.12
49473;BME280;67434;50.956;6.918;2023-02-27T04:37:34;102269.16;;;-2.33;78.07
49473;BME280;67434;50.956;6.918;2023-02-27T04:40:08;102263.03;;;-2.34;78.12
49473;BME280;67434;50.956;6.918;2023-02-27T04:42:41;102269.53;;;-2.47;78.33
49473;BME280;67434;50.956;6.918;2023-02-27T04:45:12;102268.28;;;-2.43;78.98
49473;BME280;67434;50.956;6.918;2023-02-27T04:47:46;102265.09;;;-2.37;78.24
49473;BME280;67434;50.956;6.918;2023-02-27T04:50:24;102267.19;;;-2.41;78.19
49473;BME280;67434;50.956;6.918;2023-02-27T04:52:54;102272.38;;;-2.30;78.51
49473;BME280;67434;50.956;6.918;2023-02-27T04:55:26;102286.88;;;-2.24;77.89
49473;BME280;67434;50.956;6.918;2023-02-27T04:58:09;102275.16;;;-2.31;77.97
49473;BME280;67434;50.956;6.918;2023-02-27T05:00:39;102277.72;;;-2.20;78.18
49473;BME280;67434;50.956;6.918;2023-02-27T05:03:13;102287.44;;;-2.30;77.88
49473;BME280;67434;50.956;6.918;2023-02-27T05:05:41;102293.28;;;-2.27;78.55
49473;BME280;67434;50.956;6.918;2023-02-27T05:08:25;102295.81;;;-2.25;78.54
49473;BME280;67434;50.956;6.918;2023-02-27T05:13:52;102295.44;;;-2.51;79.24
49473;BME280;67434;50.956;6.918;2023-02-27T05:16:23;102296.34;;;-2.62;79.68
49473;BME280;67434;50.956;6.918;2023-02-27T05:18:51;102296.44;;;-2.73;80.22
49473;BME280;67434;50.956;6.918;2023-02-27T05:21:31;102299.38;;;-2.76;80.29
49473;BME280;67434;50.956;6.918;2023-02-27T05:24:20;102298.66;;;-2.47;79.65
49473;BME280;67434;50.956;6.918;2023-02-27T05:27:07;102302.41;;;-2.50;79.18
49473;BME280;67434;50.956;6.918;2023-02-27T05:29:55;102306.56;;;-2.57;79.61
49473;BME280;67434;50.956;6.918;2023-02-27T05:35:12;102307.91;;;-2.63;80.16
49473;BME280;67434;50.956;6.918;2023-02-27T05:37:54;102298.09;;;-2.51;79.42
49473;BME280;67434;50.956;6.918;2023-02-27T05:40:27;102304.69;;;-2.36;78.88
49473;BME280;67434;50.956;6.918;2023-02-27T05:43:01;102306.34;;;-2.44;78.76
49473;BME280;67434;50.956;6.918;2023-02-27T05:45:30;102309.25;;;-2.47;79.16
49473;BME280;67434;50.956;6.918;2023-02-27T05:48:05;102313.47;;;-2.66;79.37
49473;BME280;67434;50.956;6.918;2023-02-27T05:50:32;102308.88;;;-2.64;80.36
49473;BME280;67434;50.956;6.918;2023-02-27T05:53:02;102307.31;;;-2.76;80.57
49473;BME280;67434;50.956;6.918;2023-02-27T05:55:39;102314.94;;;-2.83;80.45
49473;BME280;67434;50.956;6.918;2023-02-27T06:03:06;102314.19;;;-2.33;78.56
49473;BME280;67434;50.956;6.918;2023-02-27T06:05:31;102314.72;;;-2.39;78.67
49473;BME280;67434;50.956;6.918;2023-02-27T06:07:59;102310.22;;;-2.48;78.55
49473;BME280;67434;50.956;6.918;2023-02-27T06:10:25;102325.81;;;-2.55;79.28
49473;BME280;67434;50.956;6.918;2023-02-27T06:12:50;102321.94;;;-2.51;79.18
49473;BME280;67434;50.956;6.918;2023-02-27T06:15:15;102319.41;;;-2.53;78.72
49473;BME280;67434;50.956;6.918;2023-02-27T06:17:42;102326.66;;;-2.55;79.06
49473;BME280;67434;50.956;6.918;2023-02-27T06:20:09;102336.41;;;-2.55;79.19
49473;BME280;67434;50.956;6.918;2023-02-27T06:22:35;102337.75;;;-2.61;79.40
49473;BME280;67434;50.956;6.918;2023-02-27T06:25:00;102340.66;;;-2.64;79.18
49473;BME280;67434;50.956;6.918;2023-02-27T06:27:26;102337.75;;;-2.61;78.84
49473;BME280;67434;50.956;6.918;2023-02-27T06:29:52;102345.94;;;-2.64;79.25
49473;BME280;67434;50.956;6.918;2023-02-27T06:32:18;102342.81;;;-2.58;78.93
49473;BME280;67434;50.956;6.918;2023-02-27T06:34:43;102343.38;;;-2.54;79.11
49473;BME280;67434;50.956;6.918;2023-02-27T06:37:09;102334.94;;;-2.38;78.37
49473;BME280;67434;50.956;6.918;2023-02-27T06:39:34;102343.63;;;-2.27;77.43
49473;BME280;67434;50.956;6.918;2023-02-27T06:41:59;102344.38;;;-2.15;76.96
49473;BME280;67434;50.956;6.918;2023-02-27T06:44:24;102342.44;;;-2.13;77.00
49473;BME280;67434;50.956;6.918;2023-02-27T06:46:51;102340.88;;;-2.15;77.16
49473;BME280;67434;50.956;6.918;2023-02-27T06:49:16;102339.50;;;-2.10;76.19
49473;BME280;67434;50.956;6.918;2023-02-27T06:51:43;102344.25;;;-2.04;76.00
49473;BME280;67434;50.956;6.918;2023-02-27T06:54:08;102348.50;;;-1.82;75.39
49473;BME280;67434;50.956;6.918;2023-02-27T06:56:34;102355.63;;;-1.73;74.69
49473;BME280;67434;50.956;6.918;2023-02-27T06:58:59;102347.28;;;-1.68;74.67
49473;BME280;67434;50.956;6.918;2023-02-27T07:01:24;102356.06;;;-1.77;75.32
49473;BME280;67434;50.956;6.918;2023-02-27T07:03:50;102366.25;;;-1.63;75.00
49473;BME280;67434;50.956;6.918;2023-02-27T07:06:16;102362.22;;;-1.58;74.10
49473;BME280;67434;50.956;6.918;2023-02-27T07:08:41;102371.03;;;-1.47;74.11
49473;BME280;67434;50.956;6.918;2023-02-27T07:11:06;102363.38;;;-1.41;73.70
49473;BME280;67434;50.956;6.918;2023-02-27T07:13:32;102371.75;;;-1.45;73.37
49473;BME280;67434;50.956;6.918;2023-02-27T07:15:57;102374.13;;;-1.33;72.76
49473;BME280;67434;50.956;6.918;2023-02-27T07:18:23;102368.53;;;-1.20;71.72
49473;BME280;67434;50.956;6.918;2023-02-27T07:20:50;102375.22;;;-1.16;71.62
49473;BME280;67434;50.956;6.918;2023-02-27T07:23:16;102372.19;;;-1.11;71.45
49473;BME280;67434;50.956;6.918;2023-02-27T07:25:41;102375.94;;;-1.04;71.00
49473;BME280;67434;50.956;6.918;2023-02-27T07:28:07;102379.16;;;-1.01;70.88
49473;BME280;67434;50.956;6.918;2023-02-27T07:30:32;102383.88;;;-0.95;70.60
49473;BME280;67434;50.956;6.918;2023-02-27T07:32:58;102382.47;;;-0.89;70.20
49473;BME280;67434;50.956;6.918;2023-02-27T07:35:24;102388.06;;;-0.82;69.75
49473;BME280;67434;50.956;6.918;2023-02-27T07:37:49;102384.28;;;-0.80;69.28
49473;BME280;67434;50.956;6.918;2023-02-27T07:40:14;102391.69;;;-0.74;69.45
49473;BME280;67434;50.956;6.918;2023-02-27T07:42:40;102400.63;;;-0.65;68.89
49473;BME280;67434;50.956;6.918;2023-02-27T07:45:07;102402.72;;;-0.59;68.65
49473;BME280;67434;50.956;6.918;2023-02-27T07:47:33;102400.75;;;-0.57;68.43
49473;BME280;67434;50.956;6.918;2023-02-27T07:49:58;102404.25;;;-0.56;68.93
49473;BME280;67434;50.956;6.918;2023-02-27T07:52:24;102406.03;;;-0.47;68.50
49473;BME280;67434;50.956;6.918;2023-02-27T07:54:49;102409.09;;;-0.42;67.43
49473;BME280;67434;50.956;6.918;2023-02-27T07:57:15;102406.44;;;-0.33;68.01
49473;BME280;67434;50.956;6.918;2023-02-27T07:59:40;102407.25;;;-0.32;67.25
49473;BME280;67434;50.956;6.918;2023-02-27T08:02:05;102408.06;;;-0.22;67.10
49473;BME280;67434;50.956;6.918;2023-02-27T08:04:31;102396.84;;;-0.16;67.03
49473;BME280;67434;50.956;6.918;2023-02-27T08:06:57;102401.28;;;-0.07;66.72
49473;BME280;67434;50.956;6.918;2023-02-27T08:09:22;102403.63;;;-0.04;66.27
49473;BME280;67434;50.956;6.918;2023-02-27T08:11:48;102400.84;;;-0.02;66.17
49473;BME280;67434;50.956;6.918;2023-02-27T08:14:13;102392.03;;;-0.03;66.94
49473;BME280;67434;50.956;6.918;2023-02-27T08:16:39;102394.66;;;0.07;66.37
49473;BME280;67434;50.956;6.918;2023-02-27T08:19:04;102399.09;;;0.16;64.94
49473;BME280;67434;50.956;6.918;2023-02-27T08:21:30;102398.63;;;0.21;64.77
49473;BME280;67434;50.956;6.918;2023-02-27T08:23:57;102402.81;;;0.23;64.92
49473;BME280;67434;50.956;6.918;2023-02-27T08:26:23;102402.53;;;0.26;64.21
49473;BME280;67434;50.956;6.918;2023-02-27T08:28:48;102403.06;;;0.30;63.78
49473;BME280;67434;50.956;6.918;2023-02-27T08:31:13;102412.88;;;0.29;63.78
49473;BME280;67434;50.956;6.918;2023-02-27T08:33:39;102410.44;;;0.36;64.04
49473;BME280;67434;50.956;6.918;2023-02-27T08:36:04;102402.72;;;0.43;63.68
49473;BME280;67434;50.956;6.918;2023-02-27T08:38:30;102405.78;;;0.48;63.64
49473;BME280;67434;50.956;6.918;2023-02-27T08:40:55;102415.66;;;0.55;62.79
49473;BME280;67434;50.956;6.918;2023-02-27T08:43:21;102403.13;;;0.66;62.24
49473;BME280;67434;50.956;6.918;2023-02-27T08:45:49;102403.81;;;0.68;62.48
49473;BME280;67434;50.956;6.918;2023-02-27T08:48:14;102410.22;;;0.75;61.83
49473;BME280;67434;50.956;6.918;2023-02-27T08:50:43;102417.59;;;0.81;61.96
49473;BME280;67434;50.956;6.918;2023-02-27T08:53:09;102416.31;;;0.85;61.24
49473;BME280;67434;50.956;6.918;2023-02-27T08:55:35;102410.38;;;0.91;60.99
49473;BME280;67434;50.956;6.918;2023-02-27T08:58:00;102403.75;;;0.95;60.87
49473;BME280;67434;50.956;6.918;2023-02-27T09:00:25;102402.06;;;0.94;60.73
49473;BME280;67434;50.956;6.918;2023-02-27T09:02:52;102406.03;;;0.90;59.99
49473;BME280;67434;50.956;6.918;2023-02-27T09:05:17;102404.34;;;0.89;60.68
49473;BME280;67434;50.956;6.918;2023-02-27T09:07:43;102402.06;;;0.94;61.11
49473;BME280;67434;50.956;6.918;2023-02-27T09:10:09;102404.66;;;1.04;60.81
49473;BME280;67434;50.956;6.918;2023-02-27T09:12:36;102409.59;;;1.16;59.85
49473;BME280;67434;50.956;6.918;2023-02-27T09:15:02;102416.50;;;1.09;60.19
49473;BME280;67434;50.956;6.918;2023-02-27T09:17:30;102413.09;;;1.17;60.59
49473;BME280;67434;50.956;6.918;2023-02-27T09:19:56;102418.03;;;1.30;59.71
49473;BME280;67434;50.956;6.918;2023-02-27T09:22:21;102408.03;;;1.32;59.67
49473;BME280;67434;50.956;6.918;2023-02-27T09:24:47;102420.44;;;1.41;58.86
49473;BME280;67434;50.956;6.918;2023-02-27T09:27:15;102405.81;;;1.45;58.65
49473;BME280;67434;50.956;6.918;2023-02-27T09:29:43;102415.63;;;1.44;58.90
49473;BME280;67434;50.956;6.918;2023-02-27T09:32:09;102409.16;;;1.47;59.15
49473;BME280;67434;50.956;6.918;2023-02-27T09:34:34;102416.91;;;1.58;58.77
49473;BME280;67434;50.956;6.918;2023-02-27T09:37:00;102410.63;;;1.67;58.78
49473;BME280;67434;50.956;6.918;2023-02-27T09:39:26;102412.63;;;1.65;58.92
49473;BME280;67434;50.956;6.918;2023-02-27T09:42:00;102406.91;;;1.60;59.26
49473;BME280;67434;50.956;6.918;2023-02-27T09:44:34;102407.97;;;1.67;58.34
49473;BME280;67434;50.956;6.918;2023-02-27T09:47:03;102406.97;;;1.68;57.72
49473;BME280;67434;50.956;6.918;2023-02-27T09:49:33;102409.16;;;1.73;58.05
49473;BME280;67434;50.956;6.918;2023-02-27T09:52:01;102406.91;;;1.86;56.82
49473;BME280;67434;50.956;6.918;2023-02-27T09:54:30;102408.09;;;1.92;57.92
49473;BME280;67434;50.956;6.918;2023-02-27T09:57:00;102414.31;;;2.00;57.65
49473;BME280;67434;50.956;6.918;2023-02-27T09:59:33;102412.16;;;2.04;57.19
49473;BME280;67434;50.956;6.918;2023-02-27T10:02:07;102412.66;;;2.07;57.14
49473;BME280;67434;50.956;6.918;2023-02-27T10:07:31;102402.66;;;2.01;56.46
49473;BME280;67434;50.956;6.918;2023-02-27T10:10:35;102406.53;;;2.15;57.21
49473;BME280;67434;50.956;6.918;2023-02-27T10:15:56;102414.34;;;2.50;55.21
49473;BME280;67434;50.956;6.918;2023-02-27T10:18:28;102411.00;;;2.57;53.78
49473;BME280;67434;50.956;6.918;2023-02-27T10:20:57;102407.16;;;2.59;53.39
49473;BME280;67434;50.956;6.918;2023-02-27T10:23:45;102407.16;;;2.59;53.55
49473;BME280;67434;50.956;6.918;2023-02-27T10:26:18;102412.06;;;2.72;51.80
49473;BME280;67434;50.956;6.918;2023-02-27T10:28:44;102406.91;;;2.78;51.24
49473;BME280;67434;50.956;6.918;2023-02-27T10:31:21;102405.72;;;2.89;50.65
49473;BME280;67434;50.956;6.918;2023-02-27T10:33:49;102394.56;;;3.02;50.45
49473;BME280;67434;50.956;6.918;2023-02-27T10:36:16;102405.44;;;3.08;49.94
49473;BME280;67434;50.956;6.918;2023-02-27T10:38:46;102397.91;;;3.12;49.65
49473;BME280;67434;50.956;6.918;2023-02-27T10:41:15;102403.91;;;3.14;49.79
49473;BME280;67434;50.956;6.918;2023-02-27T10:43:41;102408.59;;;3.12;49.55
49473;BME280;67434;50.956;6.918;2023-02-27T10:46:28;102403.25;;;3.12;49.69
49473;BME280;67434;50.956;6.918;2023-02-27T10:48:57;102402.41;;;3.20;49.63
49473;BME280;67434;50.956;6.918;2023-02-27T10:51:30;102394.72;;;3.33;49.43
49473;BME280;67434;50.956;6.918;2023-02-27T10:56:52;102410.41;;;3.52;47.93
49473;BME280;67434;50.956;6.918;2023-02-27T10:59:26;102397.03;;;3.52;47.48
49473;BME280;67434;50.956;6.918;2023-02-27T11:01:56;102387.38;;;3.43;47.72
49473;BME280;67434;50.956;6.918;2023-02-27T11:04:27;102390.03;;;3.51;47.71
49473;BME280;67434;50.956;6.918;2023-02-27T11:06:54;102392.00;;;3.65;47.95
49473;BME280;67434;50.956;6.918;2023-02-27T11:09:28;102384.28;;;3.79;46.75
49473;BME280;67434;50.956;6.918;2023-02-27T11:14:59;102381.25;;;3.90;46.45
49473;BME280;67434;50.956;6.918;2023-02-27T11:17:33;102376.94;;;3.81;46.85
49473;BME280;67434;50.956;6.918;2023-02-27T11:20:00;102370.53;;;3.90;47.59
49473;BME280;67434;50.956;6.918;2023-02-27T11:22:28;102375.19;;;3.96;47.48
49473;BME280;67434;50.956;6.918;2023-02-27T11:25:21;102369.19;;;3.94;48.13
49473;BME280;67434;50.956;6.918;2023-02-27T11:27:47;102374.84;;;3.99;47.06
49473;BME280;67434;50.956;6.918;2023-02-27T11:30:41;102372.47;;;4.04;47.60
49473;BME280;67434;50.956;6.918;2023-02-27T11:33:16;102365.09;;;4.14;47.07
49473;BME280;67434;50.956;6.918;2023-02-27T11:35:49;102353.88;;;4.19;47.01
49473;BME280;67434;50.956;6.918;2023-02-27T11:38:21;102351.72;;;4.14;46.41
49473;BME280;67434;50.956;6.918;2023-02-27T11:41:00;102344.06;;;4.03;46.83
49473;BME280;67434;50.956;6.918;2023-02-27T11:43:32;102336.38;;;4.00;46.62
49473;BME280;67434;50.956;6.918;2023-02-27T11:46:03;102331.34;;;4.05;47.77
49473;BME280;67434;50.956;6.918;2023-02-27T11:48:47;102333.94;;;4.21;46.74
49473;BME280;67434;50.956;6.918;2023-02-27T11:54:05;102331.50;;;4.34;46.48
49473;BME280;67434;50.956;6.918;2023-02-27T11:56:42;102335.16;;;4.42;47.32
49473;BME280;67434;50.956;6.918;2023-02-27T12:01:42;102329.03;;;4.56;46.44
49473;BME280;67434;50.956;6.918;2023-02-27T12:04:22;102307.50;;;4.49;45.07
49473;BME280;67434;50.956;6.918;2023-02-27T12:07:22;102305.97;;;4.55;45.32
49473;BME280;67434;50.956;6.918;2023-02-27T12:12:28;102310.66;;;4.53;44.81
49473;BME280;67434;50.956;6.918;2023-02-27T12:15:02;102305.59;;;4.58;45.21
49473;BME280;67434;50.956;6.918;2023-02-27T12:17:37;102291.66;;;4.62;45.81
49473;BME280;67434;50.956;6.918;2023-02-27T12:23:01;102285.28;;;4.86;45.69
49473;BME280;67434;50.956;6.918;2023-02-27T12:25:39;102281.69;;;4.94;45.31
49473;BME280;67434;50.956;6.918;2023-02-27T12:28:31;102275.59;;;5.00;45.03
49473;BME280;67434;50.956;6.918;2023-02-27T12:33:35;102277.53;;;5.06;45.58
49473;BME280;67434;50.956;6.918;2023-02-27T12:36:03;102281.25;;;5.05;44.57
49473;BME280;67434;50.956;6.918;2023-02-27T12:38:29;102275.69;;;5.07;45.35
49473;BME280;67434;50.956;6.918;2023-02-27T12:41:03;102262.19;;;5.15;44.57
49473;BME280;67434;50.956;6.918;2023-02-27T12:43:52;102271.06;;;5.15;45.32
49473;BME280;67434;50.956;6.918;2023-02-27T12:51:51;102265.53;;;5.17;43.88
49473;BME280;67434;50.956;6.918;2023-02-27T13:00:15;102257.78;;;5.51;43.11
49473;BME280;67434;50.956;6.918;2023-02-27T13:02:53;102262.50;;;5.64;42.21
49473;BME280;67434;50.956;6.918;2023-02-27T13:05:36;102256.75;;;5.67;42.49
49473;BME280;67434;50.956;6.918;2023-02-27T13:08:19;102248.97;;;5.72;42.37
49473;BME280;67434;50.956;6.918;2023-02-27T13:10:58;102255.56;;;5.70;42.38
49473;BME280;67434;50.956;6.918;2023-02-27T13:13:43;102247.50;;;5.70;42.71
49473;BME280;67434;50.956;6.918;2023-02-27T13:16:14;102241.75;;;5.73;42.35
49473;BME280;67434;50.956;6.918;2023-02-27T13:18:56;102250.00;;;5.71;42.11
49473;BME280;67434;50.956;6.918;2023-02-27T13:21:30;102242.13;;;5.70;42.52
49473;BME280;67434;50.956;6.918;2023-02-27T13:24:42;102239.91;;;5.73;42.81
49473;BME280;67434;50.956;6.918;2023-02-27T13:27:06;102248.69;;;5.82;42.93
49473;BME280;67434;50.956;6.918;2023-02-27T13:32:36;102246.56;;;5.77;42.48
49473;BME280;67434;50.956;6.918;2023-02-27T13:35:18;102253.03;;;5.83;41.40
49473;BME280;67434;50.956;6.918;2023-02-27T13:37:57;102242.94;;;5.85;41.72
49473;BME280;67434;50.956;6.918;2023-02-27T13:40:37;102240.81;;;5.95;40.85
49473;BME280;67434;50.956;6.918;2023-02-27T13:43:33;102245.50;;;6.08;41.34
49473;BME280;67434;50.956;6.918;2023-02-27T13:46:03;102236.50;;;6.15;41.45
49473;BME280;67434;50.956;6.918;2023-02-27T13:48:36;102239.56;;;6.12;42.18
49473;BME280;67434;50.956;6.918;2023-02-27T13:51:04;102241.88;;;6.15;42.15
49473;BME280;67434;50.956;6.918;2023-02-27T13:53:30;102244.13;;;6.33;42.12
49473;BME280;67434;50.956;6.918;2023-02-27T13:56:19;102238.09;;;6.52;41.27
49473;BME280;67434;50.956;6.918;2023-02-27T13:58:46;102240.81;;;6.59;39.90
49473;BME280;67434;50.956;6.918;2023-02-27T14:01:17;102244.00;;;6.41;40.34
49473;BME280;67434;50.956;6.918;2023-02-27T14:03:54;102242.50;;;6.60;40.84
49473;BME280;67434;50.956;6.918;2023-02-27T14:06:24;102241.00;;;6.79;40.04
49473;BME280;67434;50.956;6.918;2023-02-27T14:08:54;102233.78;;;6.79;39.68
49473;BME280;67434;50.956;6.918;2023-02-27T14:11:31;102234.94;;;6.70;40.14
49473;BME280;67434;50.956;6.918;2023-02-27T14:14:02;102242.81;;;6.72;40.84
49473;BME280;67434;50.956;6.918;2023-02-27T14:24:33;102243.25;;;7.03;38.80
49473;BME280;67434;50.956;6.918;2023-02-27T14:27:03;102242.81;;;7.00;38.96
49473;BME280;67434;50.956;6.918;2023-02-27T14:29:31;102234.94;;;6.70;39.17
49473;BME280;67434;50.956;6.918;2023-02-27T14:31:59;102247.19;;;6.51;38.88
49473;BME280;67434;50.956;6.918;2023-02-27T14:34:26;102247.34;;;6.28;39.73
49473;BME280;67434;50.956;6.918;2023-02-27T14:36:59;102237.53;;;6.36;40.27
49473;BME280;67434;50.956;6.918;2023-02-27T14:39:36;102236.28;;;6.17;41.56
49473;BME280;67434;50.956;6.918;2023-02-27T14:42:25;102233.28;;;6.05;42.49
49473;BME280;67434;50.956;6.918;2023-02-27T14:44:54;102232.94;;;5.93;43.10
49473;BME280;67434;50.956;6.918;2023-02-27T14:47:37;102241.06;;;5.85;42.65
49473;BME280;67434;50.956;6.918;2023-02-27T14:50:05;102238.97;;;5.81;42.76
49473;BME280;67434;50.956;6.918;2023-02-27T14:52:40;102243.34;;;5.67;42.21
49473;BME280;67434;50.956;6.918;2023-02-27T14:55:23;102237.25;;;5.58;43.08
49473;BME280;67434;50.956;6.918;2023-02-27T15:02:58;102245.22;;;5.37;46.93
49473;BME280;67434;50.956;6.918;2023-02-27T15:05:28;102239.03;;;5.37;46.79
49473;BME280;67434;50.956;6.918;2023-02-27T15:07:55;102235.94;;;5.54;47.28
49473;BME280;67434;50.956;6.918;2023-02-27T15:10:26;102238.25;;;5.57;46.47
49473;BME280;67434;50.956;6.918;2023-02-27T15:12:55;102236.91;;;5.32;46.95
49473;BME280;67434;50.956;6.918;2023-02-27T15:15:21;102250.31;;;5.32;47.36
49473;BME280;67434;50.956;6.918;2023-02-27T15:17:47;102242.53;;;5.37;47.66
49473;BME280;67434;50.956;6.918;2023-02-27T15:22:52;102247.06;;;5.22;47.65
49473;BME280;67434;50.956;6.918;2023-02-27T15:25:47;102248.53;;;5.10;47.90
49473;BME280;67434;50.956;6.918;2023-02-27T15:28:22;102254.63;;;5.03;47.47
49473;BME280;67434;50.956;6.918;2023-02-27T15:30:49;102255.91;;;5.08;47.81
49473;BME280;67434;50.956;6.918;2023-02-27T15:33:15;102254.72;;;4.95;48.12
49473;BME280;67434;50.956;6.918;2023-02-27T15:35:43;102259.78;;;4.90;48.31
49473;BME280;67434;50.956;6.918;2023-02-27T15:38:28;102252.81;;;4.81;49.16
49473;BME280;67434;50.956;6.918;2023-02-27T15:40:55;102253.78;;;4.88;48.89
49473;BME280;67434;50.956;6.918;2023-02-27T15:43:22;102261.56;;;4.98;48.95
49473;BME280;67434;50.956;6.918;2023-02-27T15:45:49;102259.06;;;4.96;48.30
49473;BME280;67434;50.956;6.918;2023-02-27T15:48:18;102265.78;;;4.92;47.36
49473;BME280;67434;50.956;6.918;2023-02-27T15:50:51;102267.47;;;4.93;47.50
49473;BME280;67434;50.956;6.918;2023-02-27T15:53:22;102269.97;;;4.95;46.98
49473;BME280;67434;50.956;6.918;2023-02-27T15:55:54;102269.56;;;4.83;46.94
49473;BME280;67434;50.956;6.918;2023-02-27T15:58:25;102260.19;;;4.79;47.22
49473;BME280;67434;50.956;6.918;2023-02-27T16:00:57;102261.59;;;4.75;47.77
49473;BME280;67434;50.956;6.918;2023-02-27T16:03:28;102273.59;;;4.79;47.40
49473;BME280;67434;50.956;6.918;2023-02-27T16:05:55;102273.78;;;4.78;47.62
49473;BME280;67434;50.956;6.918;2023-02-27T16:08:21;102287.25;;;4.69;47.93